Time;durP1;ratioP1;P1;durP2;ratioP2;P2;SDS_P1;SDS_P2;PMS_P1;PMS_P2;Temp;Humidity;BMP_temperature;BMP_pressure;BME280_temperature;BME280_humidity;BME280_pressure;Samples;Min_cycle;Max_cycle;Signal;HPM_P1;HPM_P2
2023/10/03 00:01:23;;;;;;;2.50;2.25;;;19.60;99.90;;;;;;5108257;28;20267;-70
2023/10/03 00:03:52;;;;;;;3.45;2.35;;;19.60;99.90;;;;;;5110082;28;20215;-69
2023/10/03 00:06:19;;;;;;;2.30;2.00;;;19.50;99.90;;;;;;5109656;28;20266;-71
2023/10/03 00:08:47;;;;;;;3.00;2.53;;;19.50;99.90;;;;;;5110162;28;20580;-71
2023/10/03 00:11:18;;;;;;;2.38;2.17;;;19.50;99.90;;;;;;5109468;28;20222;-70
2023/10/03 00:13:46;;;;;;;2.65;1.85;;;19.60;99.90;;;;;;5110582;28;20184;-71
2023/10/03 00:16:13;;;;;;;2.78;2.00;;;19.60;99.90;;;;;;5114071;28;20290;-70
2023/10/03 00:18:49;;;;;;;2.78;2.10;;;19.50;99.90;;;;;;5113651;28;20199;-69
2023/10/03 00:21:18;;;;;;;2.10;1.90;;;19.50;99.90;;;;;;5112454;28;20244;-70
2023/10/03 00:23:45;;;;;;;3.47;2.30;;;19.50;99.90;;;;;;5112126;28;20294;-71
2023/10/03 00:26:17;;;;;;;2.67;2.10;;;19.50;99.90;;;;;;5113213;28;20233;-70
2023/10/03 00:28:45;;;;;;;3.08;2.50;;;19.50;99.90;;;;;;5100369;28;20559;-70
2023/10/03 00:31:13;;;;;;;2.72;2.53;;;19.50;99.90;;;;;;5111898;28;20212;-69
2023/10/03 00:33:45;;;;;;;3.92;2.92;;;19.40;99.90;;;;;;5105014;28;20244;-70
2023/10/03 00:36:17;;;;;;;3.13;2.80;;;20.00;99.90;;;;;;5113390;28;20195;-70
2023/10/03 00:38:45;;;;;;;4.38;3.00;;;19.40;99.90;;;;;;5106309;28;20196;-70
2023/10/03 00:41:12;;;;;;;4.53;2.60;;;19.40;99.90;;;;;;5113875;28;20203;-70
2023/10/03 00:43:53;;;;;;;3.22;2.63;;;19.40;99.90;;;;;;5113614;28;20211;-70
2023/10/03 00:46:21;;;;;;;3.28;2.42;;;19.40;99.90;;;;;;5107040;28;20188;-70
2023/10/03 00:48:50;;;;;;;3.28;2.72;;;19.40;99.90;;;;;;5113488;27;20218;-70
2023/10/03 00:51:20;;;;;;;3.65;2.80;;;19.40;99.90;;;;;;5111214;28;20222;-70
2023/10/03 00:53:51;;;;;;;4.70;3.30;;;19.40;99.90;;;;;;5112025;28;20260;-70
2023/10/03 00:56:19;;;;;;;4.50;3.13;;;19.40;99.90;;;;;;5117750;27;20248;-70
2023/10/03 00:58:47;;;;;;;3.17;2.60;;;19.40;99.90;;;;;;5111923;28;20236;-71
2023/10/03 01:01:17;;;;;;;3.33;2.60;;;19.40;99.90;;;;;;5113093;28;20623;-70
2023/10/03 01:03:47;;;;;;;4.35;2.97;;;19.40;99.90;;;;;;5109934;28;20212;-69
2023/10/03 01:06:18;;;;;;;4.68;3.28;;;19.40;99.90;;;;;;5112932;28;20583;-69
2023/10/03 01:08:47;;;;;;;5.28;3.60;;;19.40;99.90;;;;;;5114405;28;20192;-70
2023/10/03 01:11:17;;;;;;;4.75;3.17;;;19.40;99.90;;;;;;5114713;28;20188;-70
2023/10/03 01:13:46;;;;;;;3.00;2.70;;;19.40;99.90;;;;;;5129210;27;20196;-71
2023/10/03 01:16:13;;;;;;;3.33;2.80;;;19.30;99.90;;;;;;5113671;28;20199;-71
2023/10/03 01:18:47;;;;;;;3.13;2.72;;;19.30;99.90;;;;;;5113234;28;20196;-70
2023/10/03 01:21:15;;;;;;;4.60;3.20;;;19.30;99.90;;;;;;5113554;28;20266;-70
2023/10/03 01:23:44;;;;;;;4.28;3.22;;;19.30;99.90;;;;;;5112203;28;20323;-70
2023/10/03 01:26:13;;;;;;;4.25;3.03;;;19.30;99.90;;;;;;5111457;28;20674;-70
2023/10/03 01:28:40;;;;;;;6.10;2.58;;;19.30;99.90;;;;;;5113545;28;20273;-70
2023/10/03 01:31:07;;;;;;;3.45;2.88;;;19.20;99.90;;;;;;5111262;28;20203;-70
2023/10/03 01:33:35;;;;;;;3.47;2.50;;;19.30;99.90;;;;;;5113001;28;20190;-70
2023/10/03 01:36:04;;;;;;;4.13;2.42;;;19.30;99.90;;;;;;5111850;28;20206;-70
2023/10/03 01:38:31;;;;;;;4.28;3.10;;;19.30;99.90;;;;;;5113927;28;20196;-70
2023/10/03 01:41:00;;;;;;;3.08;2.30;;;19.30;99.90;;;;;;5113729;28;20203;-70
2023/10/03 01:43:28;;;;;;;3.20;2.15;;;19.20;99.90;;;;;;5113648;27;20211;-70
2023/10/03 01:45:55;;;;;;;3.70;2.85;;;19.20;99.90;;;;;;5111857;28;20192;-71
2023/10/03 01:48:23;;;;;;;2.90;2.42;;;19.20;99.90;;;;;;5112851;28;20200;-70
2023/10/03 01:50:51;;;;;;;3.35;2.35;;;19.20;99.90;;;;;;5112321;28;20233;-70
2023/10/03 01:53:18;;;;;;;2.15;1.95;;;19.20;99.90;;;;;;5110831;28;20214;-70
2023/10/03 01:55:45;;;;;;;2.20;2.00;;;19.20;99.90;;;;;;5111624;28;20210;-70
2023/10/03 01:58:14;;;;;;;2.40;1.98;;;19.20;99.90;;;;;;5110693;28;20235;-69
2023/10/03 02:00:43;;;;;;;3.25;2.05;;;19.20;99.90;;;;;;5110864;28;20662;-70
2023/10/03 02:03:12;;;;;;;2.42;1.80;;;19.20;99.90;;;;;;5112193;28;20659;-69
2023/10/03 02:05:40;;;;;;;2.85;2.42;;;19.20;99.90;;;;;;5112879;28;20237;-68
2023/10/03 02:08:12;;;;;;;2.65;2.30;;;19.20;99.90;;;;;;5110805;28;20196;-70
2023/10/03 02:10:40;;;;;;;2.20;2.00;;;19.20;99.90;;;;;;5111981;28;20206;-70
2023/10/03 02:13:11;;;;;;;3.33;2.63;;;19.20;99.90;;;;;;5112176;28;20192;-70
2023/10/03 02:15:40;;;;;;;2.92;2.10;;;19.20;99.90;;;;;;5116635;27;20678;-70
2023/10/03 02:18:09;;;;;;;2.92;2.30;;;19.20;99.90;;;;;;5110034;28;20223;-69
2023/10/03 02:20:47;;;;;;;4.20;3.17;;;19.20;99.90;;;;;;5108840;28;20745;-70
2023/10/03 02:23:17;;;;;;;2.50;2.17;;;19.20;99.90;;;;;;5111239;28;20187;-70
2023/10/03 02:25:46;;;;;;;3.30;2.50;;;19.10;99.90;;;;;;5142982;27;20218;-70
2023/10/03 02:28:16;;;;;;;3.05;2.28;;;19.20;99.90;;;;;;5111976;28;20198;-70
2023/10/03 02:30:47;;;;;;;2.95;2.47;;;19.20;99.90;;;;;;5112318;28;20192;-71
2023/10/03 02:33:15;;;;;;;3.67;2.60;;;19.10;99.90;;;;;;5109360;28;20195;-70
2023/10/03 02:35:43;;;;;;;3.60;2.80;;;19.10;99.90;;;;;;5112386;28;20672;-70
2023/10/03 02:38:14;;;;;;;2.85;2.55;;;19.10;99.90;;;;;;5109305;28;21248;-70
2023/10/03 02:40:43;;;;;;;2.65;2.42;;;19.00;99.90;;;;;;5110728;28;20303;-70
2023/10/03 02:43:12;;;;;;;1.83;1.67;;;19.00;99.90;;;;;;5126510;27;20204;-70
2023/10/03 02:45:42;;;;;;;2.30;2.00;;;19.00;99.90;;;;;;5110631;28;20226;-70
2023/10/03 02:48:15;;;;;;;2.13;1.90;;;19.00;99.90;;;;;;5109854;28;20306;-70
2023/10/03 02:50:46;;;;;;;2.00;1.80;;;19.00;99.90;;;;;;5110792;28;20305;-71
2023/10/03 02:53:19;;;;;;;2.33;1.90;;;19.00;99.90;;;;;;5109117;28;20192;-71
2023/10/03 02:55:47;;;;;;;2.10;1.80;;;19.00;99.90;;;;;;5112194;28;20195;-70
2023/10/03 02:58:14;;;;;;;2.58;2.10;;;18.90;99.90;;;;;;5109323;28;20741;-70
2023/10/03 03:00:43;;;;;;;2.05;1.80;;;18.80;99.90;;;;;;5110045;28;20202;-70
2023/10/03 03:03:14;;;;;;;2.03;1.92;;;18.80;99.90;;;;;;5109469;28;20208;-70
2023/10/03 03:05:43;;;;;;;2.33;1.83;;;18.80;99.90;;;;;;5110151;28;20230;-70
2023/10/03 03:08:23;;;;;;;2.03;1.83;;;18.80;99.90;;;;;;5110864;28;20188;-70
2023/10/03 03:10:55;;;;;;;2.20;2.00;;;18.80;99.90;;;;;;5112194;28;20294;-69
2023/10/03 03:13:24;;;;;;;2.20;1.80;;;18.80;99.90;;;;;;5110535;28;20204;-70
2023/10/03 03:15:59;;;;;;;2.65;2.10;;;18.80;99.90;;;;;;5110253;28;20203;-69
2023/10/03 03:18:31;;;;;;;2.88;2.20;;;18.80;99.90;;;;;;5109918;28;20200;-69
2023/10/03 03:21:00;;;;;;;2.55;2.08;;;18.80;99.90;;;;;;5112036;28;20243;-69
2023/10/03 03:23:30;;;;;;;2.42;2.22;;;18.70;99.90;;;;;;5111312;28;20203;-69
2023/10/03 03:26:12;;;;;;;2.78;2.20;;;18.70;99.90;;;;;;5111561;28;20196;-69
2023/10/03 03:28:40;;;;;;;2.28;2.08;;;18.70;99.90;;;;;;5125359;27;20204;-69
2023/10/03 03:31:17;;;;;;;2.80;2.40;;;18.70;99.90;;;;;;5110849;27;20204;-70
2023/10/03 03:33:46;;;;;;;3.67;2.80;;;18.60;99.90;;;;;;5101110;28;20191;-70
2023/10/03 03:36:18;;;;;;;4.25;2.33;;;18.50;99.90;;;;;;5110834;28;20207;-70
2023/10/03 03:38:47;;;;;;;3.10;2.80;;;18.50;99.90;;;;;;5109744;27;20677;-70
2023/10/03 03:41:15;;;;;;;2.97;2.63;;;18.50;99.90;;;;;;5111141;28;20245;-70
2023/10/03 03:43:42;;;;;;;3.22;2.80;;;18.50;99.90;;;;;;5105848;28;20207;-70
2023/10/03 03:46:10;;;;;;;2.38;2.13;;;18.50;99.90;;;;;;5109547;28;20200;-70
2023/10/03 03:48:38;;;;;;;4.18;2.42;;;18.50;99.90;;;;;;5107720;28;20207;-70
2023/10/03 03:51:11;;;;;;;2.25;2.08;;;18.50;99.90;;;;;;5103464;28;20543;-70
2023/10/03 03:53:39;;;;;;;2.78;2.20;;;18.50;99.90;;;;;;5110576;28;20196;-69
2023/10/03 03:56:07;;;;;;;2.20;1.98;;;18.50;99.90;;;;;;5105791;27;20219;-69
2023/10/03 03:58:37;;;;;;;3.20;2.35;;;18.40;99.90;;;;;;5104037;28;20716;-69
2023/10/03 04:01:14;;;;;;;3.13;2.22;;;18.40;99.90;;;;;;5109902;28;20200;-70
2023/10/03 04:03:42;;;;;;;3.47;2.88;;;18.40;99.90;;;;;;5106999;28;20204;-70
2023/10/03 04:06:10;;;;;;;3.47;2.72;;;18.40;99.90;;;;;;5105348;28;20285;-70
2023/10/03 04:08:38;;;;;;;3.92;3.00;;;18.30;99.90;;;;;;5110756;28;20248;-70
2023/10/03 04:11:07;;;;;;;3.78;3.20;;;18.30;99.90;;;;;;5107088;28;20203;-70
2023/10/03 04:13:38;;;;;;;2.63;2.38;;;18.30;99.90;;;;;;5102805;28;20196;-70
2023/10/03 04:16:06;;;;;;;3.63;3.20;;;18.30;99.90;;;;;;5108431;28;20217;-71
2023/10/03 04:18:33;;;;;;;3.00;2.28;;;18.30;99.90;;;;;;5108047;28;20204;-70
2023/10/03 04:21:01;;;;;;;3.60;2.63;;;18.30;99.90;;;;;;5100340;28;21042;-71
2023/10/03 04:23:30;;;;;;;2.78;2.40;;;18.30;99.90;;;;;;5106785;28;20635;-70
2023/10/03 04:25:58;;;;;;;2.67;2.40;;;18.40;99.90;;;;;;5110785;28;20216;-70
2023/10/03 04:28:25;;;;;;;2.90;2.55;;;18.30;99.90;;;;;;5103055;28;20499;-70
2023/10/03 04:30:53;;;;;;;3.65;3.10;;;18.30;99.90;;;;;;5107759;28;20227;-70
2023/10/03 04:33:23;;;;;;;6.38;3.40;;;18.30;99.90;;;;;;5110927;28;20204;-71
2023/10/03 04:35:51;;;;;;;7.10;3.63;;;18.20;99.90;;;;;;5106126;28;20200;-70
2023/10/03 04:38:18;;;;;;;7.82;4.43;;;18.20;99.90;;;;;;5101964;28;20206;-69
2023/10/03 04:40:47;;;;;;;7.38;4.32;;;18.20;99.90;;;;;;5110556;28;20708;-71
2023/10/03 04:43:15;;;;;;;5.97;4.03;;;18.10;99.90;;;;;;5108343;28;20249;-70
2023/10/03 04:45:43;;;;;;;6.65;4.35;;;18.10;99.90;;;;;;5096912;28;20788;-69
2023/10/03 04:48:10;;;;;;;6.60;4.13;;;18.10;99.90;;;;;;5109581;28;20676;-70
2023/10/03 04:50:39;;;;;;;4.72;3.40;;;18.10;99.90;;;;;;5110431;28;20271;-70
2023/10/03 04:53:09;;;;;;;5.60;3.78;;;18.00;99.90;;;;;;5100847;28;20547;-69
2023/10/03 04:55:36;;;;;;;3.90;3.35;;;17.90;99.90;;;;;;5108146;28;20274;-69
2023/10/03 04:58:05;;;;;;;4.78;3.38;;;17.90;99.90;;;;;;5108761;28;20243;-70
2023/10/03 05:00:32;;;;;;;5.38;3.90;;;17.90;99.90;;;;;;5104282;28;20327;-70
2023/10/03 05:02:59;;;;;;;5.10;3.45;;;18.00;99.90;;;;;;5111614;28;20203;-70
2023/10/03 05:05:27;;;;;;;7.63;4.28;;;17.90;99.90;;;;;;5113963;28;20226;-70
2023/10/03 05:07:56;;;;;;;5.20;3.45;;;17.90;99.90;;;;;;5107768;28;20235;-70
2023/10/03 05:10:24;;;;;;;8.02;4.32;;;17.90;99.90;;;;;;5112366;28;20196;-71
2023/10/03 05:12:52;;;;;;;7.80;4.55;;;17.90;99.90;;;;;;5112370;28;20207;-69
2023/10/03 05:15:21;;;;;;;7.53;4.57;;;17.80;99.90;;;;;;5109821;28;20641;-70
2023/10/03 05:17:49;;;;;;;8.23;4.32;;;17.80;99.90;;;;;;5107738;28;20192;-69
2023/10/03 05:20:18;;;;;;;7.07;4.35;;;17.80;99.90;;;;;;5113864;28;20184;-69
2023/10/03 05:22:46;;;;;;;15.63;5.93;;;17.80;99.90;;;;;;5110729;28;20286;-70
2023/10/03 05:25:17;;;;;;;8.38;4.90;;;17.70;99.90;;;;;;5109457;28;20595;-70
2023/10/03 05:27:48;;;;;;;13.18;5.53;;;17.70;99.90;;;;;;5108831;28;20192;-70
2023/10/03 05:30:15;;;;;;;16.15;6.03;;;17.70;99.90;;;;;;5111634;27;20196;-70
2023/10/03 05:32:44;;;;;;;10.68;5.72;;;17.70;99.90;;;;;;5108145;28;20308;-70
2023/10/03 05:35:12;;;;;;;13.32;5.38;;;17.60;99.90;;;;;;5113653;28;20184;-70
2023/10/03 05:37:40;;;;;;;9.07;5.45;;;17.70;99.90;;;;;;5110531;28;20198;-70
2023/10/03 05:40:12;;;;;;;8.52;5.35;;;17.70;99.90;;;;;;5110846;28;20198;-71
2023/10/03 05:42:41;;;;;;;9.95;5.35;;;17.60;99.90;;;;;;5113609;28;20198;-70
2023/10/03 05:45:12;;;;;;;9.05;4.80;;;17.60;99.90;;;;;;5112888;27;20215;-70
2023/10/03 05:47:40;;;;;;;8.13;5.03;;;17.60;99.90;;;;;;5108539;28;20219;-70
2023/10/03 05:50:10;;;;;;;7.57;4.60;;;17.70;99.90;;;;;;5113666;28;20270;-69
2023/10/03 05:52:38;;;;;;;9.50;4.78;;;17.60;99.90;;;;;;5111761;28;20241;-70
2023/10/03 05:55:06;;;;;;;5.32;3.75;;;17.70;99.90;;;;;;5105881;28;20290;-70
2023/10/03 05:57:33;;;;;;;5.07;3.65;;;17.70;99.90;;;;;;5112092;28;20255;-69
2023/10/03 06:00:00;;;;;;;4.93;3.55;;;17.70;99.90;;;;;;5111934;28;20615;-70
2023/10/03 06:02:27;;;;;;;7.25;4.70;;;17.80;99.90;;;;;;5106451;28;20599;-69
2023/10/03 06:04:55;;;;;;;10.07;4.65;;;17.80;99.90;;;;;;5105487;27;20689;-69
2023/10/03 06:07:25;;;;;;;8.25;5.25;;;17.80;99.90;;;;;;5107344;28;20204;-70
2023/10/03 06:09:53;;;;;;;7.65;5.03;;;17.80;99.90;;;;;;5109513;28;20191;-70
2023/10/03 06:12:21;;;;;;;9.77;5.60;;;17.80;99.90;;;;;;5109253;28;20571;-70
2023/10/03 06:14:48;;;;;;;11.93;5.93;;;17.80;99.90;;;;;;5103214;28;20601;-69
2023/10/03 06:17:18;;;;;;;12.88;6.80;;;17.70;99.90;;;;;;5107078;28;20199;-69
2023/10/03 06:19:45;;;;;;;12.00;6.68;;;17.70;99.90;;;;;;5109724;27;20199;-70
2023/10/03 06:22:13;;;;;;;12.48;6.40;;;17.70;99.90;;;;;;5103796;28;20287;-70
2023/10/03 06:24:42;;;;;;;13.00;6.68;;;17.70;99.90;;;;;;5109461;27;20588;-70
2023/10/03 06:27:10;;;;;;;13.40;6.80;;;17.70;99.90;;;;;;5109422;28;20245;-69
2023/10/03 06:29:40;;;;;;;11.20;6.05;;;17.70;99.90;;;;;;5104781;27;20728;-67
2023/10/03 06:32:07;;;;;;;8.50;5.30;;;17.70;99.90;;;;;;5109863;28;20192;-66
2023/10/03 06:34:34;;;;;;;7.88;5.03;;;17.70;99.90;;;;;;5109740;27;20627;-68
2023/10/03 06:37:04;;;;;;;10.50;5.78;;;17.80;99.90;;;;;;5104951;28;20208;-68
2023/10/03 06:39:31;;;;;;;11.38;6.22;;;17.80;99.90;;;;;;5110479;27;20483;-68
2023/10/03 06:41:59;;;;;;;12.05;5.50;;;17.80;99.90;;;;;;5108478;28;20225;-68
2023/10/03 06:44:26;;;;;;;10.45;5.60;;;17.80;99.90;;;;;;5126469;27;20200;-68
2023/10/03 06:46:54;;;;;;;8.88;5.63;;;17.90;99.90;;;;;;5104593;28;20291;-68
2023/10/03 06:49:23;;;;;;;7.82;4.80;;;17.90;99.90;;;;;;5113497;27;20228;-68
2023/10/03 06:51:52;;;;;;;7.60;5.18;;;17.90;99.90;;;;;;5104883;27;20220;-68
2023/10/03 06:54:20;;;;;;;7.65;5.05;;;18.00;99.90;;;;;;5111624;27;20553;-68
2023/10/03 06:56:48;;;;;;;8.40;5.43;;;18.00;99.90;;;;;;5109540;28;20191;-69
2023/10/03 06:59:17;;;;;;;11.32;5.72;;;18.10;99.90;;;;;;5114274;27;20195;-68
2023/10/03 07:01:44;;;;;;;10.10;5.82;;;18.10;99.90;;;;;;5108676;27;20578;-67
2023/10/03 07:04:11;;;;;;;8.43;5.43;;;18.10;99.90;;;;;;5110331;28;20217;-68
2023/10/03 07:06:38;;;;;;;10.60;5.63;;;18.10;99.90;;;;;;5109455;28;20231;-68
2023/10/03 07:09:10;;;;;;;8.70;5.22;;;18.20;99.90;;;;;;5110451;28;20188;-68
2023/10/03 07:11:37;;;;;;;7.28;4.95;;;18.20;99.90;;;;;;5108666;28;20192;-67
2023/10/03 07:14:05;;;;;;;7.85;5.00;;;18.30;99.90;;;;;;5108999;28;20193;-68
2023/10/03 07:16:39;;;;;;;9.50;5.57;;;18.30;99.90;;;;;;5120817;27;20458;-68
2023/10/03 07:19:06;;;;;;;11.00;6.13;;;18.30;99.90;;;;;;5103652;28;20199;-67
2023/10/03 07:21:34;;;;;;;10.73;6.10;;;18.40;99.90;;;;;;5109428;27;20682;-68
2023/10/03 07:24:02;;;;;;;11.15;5.78;;;18.40;99.90;;;;;;5108630;28;20619;-68
2023/10/03 07:26:29;;;;;;;8.57;5.40;;;18.50;99.90;;;;;;5113930;27;20682;-67
2023/10/03 07:28:58;;;;;;;11.00;5.70;;;18.50;99.90;;;;;;5109922;28;20199;-69
2023/10/03 07:31:25;;;;;;;7.85;4.68;;;18.50;99.90;;;;;;5107958;27;20227;-67
2023/10/03 07:33:55;;;;;;;8.43;4.85;;;18.60;99.90;;;;;;5107292;28;20204;-68
2023/10/03 07:36:23;;;;;;;8.85;4.95;;;18.60;99.90;;;;;;5107549;28;20733;-69
2023/10/03 07:38:50;;;;;;;11.07;5.47;;;18.70;99.90;;;;;;5108946;28;20188;-68
2023/10/03 07:41:19;;;;;;;7.15;5.05;;;18.70;99.90;;;;;;5109857;28;20239;-68
2023/10/03 07:43:48;;;;;;;5.95;4.18;;;18.70;99.90;;;;;;5139772;27;20210;-69
2023/10/03 07:46:20;;;;;;;5.55;4.28;;;18.90;99.90;;;;;;5108491;28;20211;-68
2023/10/03 07:48:48;;;;;;;6.07;4.05;;;19.00;99.90;;;;;;5105906;27;20199;-68
2023/10/03 07:51:18;;;;;;;7.30;4.90;;;19.00;99.90;;;;;;5106908;28;20214;-68
2023/10/03 07:53:46;;;;;;;6.00;4.30;;;19.10;99.90;;;;;;5108243;28;20253;-68
2023/10/03 07:56:25;;;;;;;6.70;4.30;;;19.20;99.90;;;;;;5108926;28;20200;-69
2023/10/03 07:58:56;;;;;;;6.60;4.30;;;19.30;99.90;;;;;;5106686;28;20614;-67
2023/10/03 08:01:25;;;;;;;6.35;4.03;;;19.30;99.90;;;;;;5112210;27;20191;-68
2023/10/03 08:03:56;;;;;;;9.48;4.72;;;19.40;99.90;;;;;;5108933;28;20257;-68
2023/10/03 08:06:27;;;;;;;9.35;4.85;;;19.50;99.90;;;;;;5106827;28;20216;-69
2023/10/03 08:08:59;;;;;;;9.02;5.07;;;19.60;99.90;;;;;;5109624;28;20195;-69
2023/10/03 08:11:28;;;;;;;7.43;4.03;;;19.60;99.90;;;;;;5116122;28;20200;-68
2023/10/03 08:13:56;;;;;;;6.38;4.10;;;19.60;99.90;;;;;;5117253;28;20642;-69
2023/10/03 08:16:23;;;;;;;7.63;4.63;;;19.80;99.90;;;;;;5105233;28;21388;-67
2023/10/03 08:18:57;;;;;;;6.55;4.28;;;19.80;99.90;;;;;;5104510;28;20202;-68
2023/10/03 08:21:27;;;;;;;7.70;3.88;;;19.90;99.90;;;;;;5107385;28;20244;-67
2023/10/03 08:23:54;;;;;;;6.50;4.05;;;20.00;99.90;;;;;;5109437;28;20232;-69
2023/10/03 08:26:22;;;;;;;8.60;5.03;;;20.10;99.90;;;;;;5120875;28;20216;-68
2023/10/03 08:28:59;;;;;;;6.65;4.10;;;20.10;99.90;;;;;;5103332;28;20298;-68
2023/10/03 08:31:26;;;;;;;6.03;4.20;;;20.20;99.90;;;;;;5107391;28;20206;-67
2023/10/03 08:33:55;;;;;;;5.82;3.95;;;20.30;99.90;;;;;;5107727;28;20191;-68
2023/10/03 08:36:23;;;;;;;4.80;3.65;;;20.30;99.90;;;;;;5109953;28;20324;-68
2023/10/03 08:38:51;;;;;;;8.35;3.85;;;20.40;99.90;;;;;;5113158;28;20211;-68
2023/10/03 08:41:25;;;;;;;6.28;4.22;;;20.50;99.90;;;;;;5111164;28;20191;-69
2023/10/03 08:43:55;;;;;;;6.80;3.95;;;20.50;99.90;;;;;;5111578;28;20207;-70
2023/10/03 08:46:25;;;;;;;7.47;4.10;;;20.60;99.90;;;;;;5115048;27;20867;-68
2023/10/03 08:49:00;;;;;;;8.30;4.82;;;20.60;99.90;;;;;;5142037;27;20257;-68
2023/10/03 08:51:32;;;;;;;7.30;4.68;;;20.70;99.90;;;;;;5111109;28;20199;-69
2023/10/03 08:54:09;;;;;;;6.60;4.20;;;20.70;99.90;;;;;;5110876;28;20750;-70
2023/10/03 08:56:36;;;;;;;10.82;5.13;;;20.80;99.90;;;;;;5109269;27;20207;-69
2023/10/03 08:59:07;;;;;;;4.95;4.03;;;20.80;99.90;;;;;;5112466;27;20204;-69
2023/10/03 09:01:38;;;;;;;6.30;3.90;;;20.90;99.90;;;;;;5108864;27;20196;-69
2023/10/03 09:04:09;;;;;;;10.43;4.70;;;20.90;99.90;;;;;;5111880;28;20270;-69
2023/10/03 09:06:38;;;;;;;8.75;4.30;;;21.00;99.90;;;;;;5109711;27;20646;-69
2023/10/03 09:09:10;;;;;;;7.38;4.53;;;21.00;99.90;;;;;;5110531;28;20191;-69
2023/10/03 09:11:37;;;;;;;6.35;3.75;;;21.10;99.90;;;;;;5111049;27;20277;-69
2023/10/03 09:14:04;;;;;;;6.30;3.88;;;21.10;99.90;;;;;;5114045;27;20187;-68
2023/10/03 09:16:38;;;;;;;6.40;4.20;;;21.20;99.90;;;;;;5106041;27;20196;-70
2023/10/03 09:19:06;;;;;;;7.63;4.30;;;21.20;99.90;;;;;;5111778;28;20276;-70
2023/10/03 09:21:33;;;;;;;5.57;3.78;;;21.30;99.90;;;;;;5110469;28;22382;-68
2023/10/03 09:26:51;;;;;;;6.80;4.47;;;21.40;99.90;;;;;;5109855;28;20235;-69
2023/10/03 09:29:29;;;;;;;6.38;4.55;;;21.50;99.90;;;;;;5108010;28;20502;-69
2023/10/03 09:31:58;;;;;;;7.70;4.28;;;21.50;99.90;;;;;;5110858;28;20302;-69
2023/10/03 09:34:30;;;;;;;7.97;4.82;;;21.50;99.90;;;;;;5107020;28;20324;-70
2023/10/03 09:37:02;;;;;;;8.40;5.10;;;21.60;99.90;;;;;;5108696;28;20233;-69
2023/10/03 09:39:30;;;;;;;7.93;4.55;;;21.60;99.90;;;;;;5111615;27;20227;-67
2023/10/03 09:42:03;;;;;;;7.47;4.70;;;21.60;99.90;;;;;;5110809;27;20319;-69
2023/10/03 09:44:32;;;;;;;6.88;4.22;;;21.60;99.90;;;;;;5107035;27;20387;-68
2023/10/03 09:47:04;;;;;;;10.05;4.38;;;21.70;99.90;;;;;;5110268;28;20290;-68
2023/10/03 09:49:36;;;;;;;9.95;4.47;;;21.70;99.90;;;;;;5105774;27;20289;-69
2023/10/03 09:52:17;;;;;;;6.93;4.60;;;21.90;99.90;;;;;;5108092;27;20200;-69
2023/10/03 09:54:45;;;;;;;8.30;4.40;;;22.00;99.90;;;;;;5108483;27;20192;-68
2023/10/03 09:57:17;;;;;;;9.52;5.32;;;22.30;99.90;;;;;;5107660;27;20220;-68
2023/10/03 09:59:48;;;;;;;7.95;5.03;;;22.50;99.90;;;;;;5108828;27;20191;-69
2023/10/03 10:02:16;;;;;;;8.93;4.88;;;22.70;99.90;;;;;;5115381;27;20196;-70
2023/10/03 10:04:46;;;;;;;11.85;5.22;;;22.90;99.90;;;;;;5108987;27;20204;-69
2023/10/03 10:07:29;;;;;;;15.88;6.20;;;23.10;99.90;;;;;;5115634;27;20238;-69
2023/10/03 10:10:07;;;;;;;15.05;5.55;;;23.20;99.90;;;;;;5110127;27;20249;-70
2023/10/03 10:12:43;;;;;;;13.50;5.18;;;23.20;99.90;;;;;;5111060;27;20511;-69
2023/10/03 10:15:26;;;;;;;11.43;5.57;;;23.20;99.90;;;;;;5105459;27;20278;-68
2023/10/03 10:17:55;;;;;;;15.70;5.80;;;23.10;99.90;;;;;;5105298;27;20555;-69
2023/10/03 10:20:32;;;;;;;10.02;4.93;;;23.10;99.90;;;;;;5105261;28;20203;-68
2023/10/03 10:25:57;;;;;;;6.40;4.20;;;23.00;99.90;;;;;;5108721;27;20268;-69
2023/10/03 10:28:30;;;;;;;11.80;5.40;;;23.00;99.90;;;;;;5105555;27;20189;-68
2023/10/03 10:31:25;;;;;;;7.60;4.43;;;22.90;99.90;;;;;;5105622;27;20277;-65
2023/10/03 10:34:46;;;;;;;7.57;4.03;;;22.90;99.90;;;;;;5110274;27;21300;-65
2023/10/03 10:37:17;;;;;;;7.85;4.03;;;22.90;99.90;;;;;;5109154;27;20192;-64
2023/10/03 10:40:17;;;;;;;13.07;5.45;;;22.90;99.90;;;;;;5107784;28;20184;-66
2023/10/03 10:42:59;;;;;;;6.90;4.18;;;22.80;99.90;;;;;;5105224;28;20196;-66
2023/10/03 10:45:27;;;;;;;10.13;4.13;;;22.80;99.90;;;;;;5122190;27;20215;-64
2023/10/03 10:47:56;;;;;;;7.57;4.13;;;22.80;99.90;;;;;;5109258;28;20650;-65
2023/10/03 10:50:25;;;;;;;10.85;4.75;;;22.80;99.90;;;;;;5111759;27;20187;-66
2023/10/03 10:52:55;;;;;;;6.97;4.43;;;22.80;99.90;;;;;;5105275;27;20267;-66
2023/10/03 10:55:23;;;;;;;5.60;3.65;;;22.80;99.90;;;;;;5108824;28;20222;-65
2023/10/03 10:58:07;;;;;;;14.48;5.25;;;22.80;99.90;;;;;;5110817;27;20631;-65
2023/10/03 11:00:36;;;;;;;11.13;5.05;;;22.80;99.90;;;;;;5101689;28;20234;-67
2023/10/03 11:03:04;;;;;;;11.50;4.93;;;22.80;99.90;;;;;;5108191;28;20220;-64
2023/10/03 11:05:46;;;;;;;7.88;4.15;;;22.80;99.90;;;;;;5108307;28;20254;-64
2023/10/03 11:08:13;;;;;;;9.32;4.38;;;22.80;99.90;;;;;;5108210;28;20243;-65
2023/10/03 11:10:52;;;;;;;7.95;4.20;;;22.90;99.90;;;;;;5103102;28;20208;-65
2023/10/03 11:13:19;;;;;;;10.35;5.00;;;22.90;99.90;;;;;;5106723;28;20212;-65
2023/10/03 11:15:50;;;;;;;8.82;4.75;;;22.90;99.90;;;;;;5109059;28;20195;-65
2023/10/03 11:18:27;;;;;;;6.82;3.72;;;22.90;99.70;;;;;;5106667;28;20715;-64
2023/10/03 11:20:55;;;;;;;9.70;4.60;;;23.00;99.70;;;;;;5102094;28;20239;-64
2023/10/03 11:23:23;;;;;;;7.63;4.05;;;23.00;99.50;;;;;;5108932;28;20604;-64
2023/10/03 11:25:54;;;;;;;6.88;3.83;;;23.10;99.50;;;;;;5107728;27;20238;-64
2023/10/03 11:28:21;;;;;;;7.70;4.07;;;23.10;99.30;;;;;;5111483;27;20557;-64
2023/10/03 11:31:02;;;;;;;13.88;4.85;;;23.20;99.30;;;;;;5107982;28;20200;-65
2023/10/03 11:33:29;;;;;;;10.32;4.70;;;23.20;99.20;;;;;;5106622;28;20206;-66
2023/10/03 11:35:56;;;;;;;9.50;4.72;;;23.20;99.10;;;;;;5110205;28;20195;-65
2023/10/03 11:38:24;;;;;;;9.90;4.82;;;23.30;99.00;;;;;;5109336;28;20219;-64
2023/10/03 11:40:51;;;;;;;6.65;3.92;;;23.30;98.90;;;;;;5106920;28;20647;-66
2023/10/03 11:43:22;;;;;;;8.68;4.40;;;23.30;99.00;;;;;;5110826;28;20249;-64
2023/10/03 11:45:55;;;;;;;6.55;3.80;;;23.30;98.90;;;;;;5110632;28;20248;-64
2023/10/03 11:48:24;;;;;;;4.93;3.40;;;23.40;98.90;;;;;;5139575;27;20673;-64
2023/10/03 11:50:51;;;;;;;5.18;3.70;;;23.40;99.00;;;;;;5110411;28;20226;-64
2023/10/03 11:53:21;;;;;;;5.50;3.28;;;23.40;98.80;;;;;;5109595;28;20225;-64
2023/10/03 11:55:53;;;;;;;7.40;3.75;;;23.40;98.80;;;;;;5106985;28;20593;-65
2023/10/03 11:58:20;;;;;;;5.82;3.28;;;23.40;98.70;;;;;;5109782;28;20232;-65
2023/10/03 12:00:49;;;;;;;5.75;3.42;;;23.50;98.70;;;;;;5105981;28;20264;-66
2023/10/03 12:03:16;;;;;;;12.63;4.70;;;23.50;98.60;;;;;;5110601;27;20227;-65
2023/10/03 12:05:45;;;;;;;6.88;4.13;;;23.50;98.30;;;;;;5110824;28;20211;-65
2023/10/03 12:08:13;;;;;;;6.13;3.63;;;23.50;98.30;;;;;;5096869;28;20212;-65
2023/10/03 12:10:41;;;;;;;8.05;4.40;;;23.50;98.10;;;;;;5100089;28;20200;-65
2023/10/03 12:13:09;;;;;;;5.10;3.30;;;23.60;97.80;;;;;;5108657;28;20215;-64
2023/10/03 12:15:41;;;;;;;7.85;3.95;;;23.60;97.80;;;;;;5106052;28;20192;-65
2023/10/03 12:18:09;;;;;;;6.93;3.58;;;23.60;97.80;;;;;;5104758;28;20245;-65
2023/10/03 12:20:38;;;;;;;6.90;3.80;;;23.60;97.80;;;;;;5109819;28;20191;-65
2023/10/03 12:23:06;;;;;;;8.13;3.67;;;23.70;97.70;;;;;;5107231;28;20618;-65
2023/10/03 12:25:36;;;;;;;11.57;4.40;;;23.70;97.40;;;;;;5109348;28;20264;-66
2023/10/03 12:28:04;;;;;;;5.53;2.92;;;23.80;97.40;;;;;;5105060;28;20756;-65
2023/10/03 12:30:31;;;;;;;13.68;4.50;;;23.80;97.40;;;;;;5108694;28;20207;-65
2023/10/03 12:32:58;;;;;;;6.82;3.70;;;23.90;97.20;;;;;;5108860;28;20203;-65
2023/10/03 12:35:25;;;;;;;7.18;3.90;;;23.90;96.80;;;;;;5106860;28;20204;-65
2023/10/03 12:37:57;;;;;;;8.82;4.45;;;24.00;96.40;;;;;;5107813;28;20200;-64
2023/10/03 12:40:27;;;;;;;12.02;4.40;;;24.20;95.80;;;;;;5109266;28;20271;-65
2023/10/03 12:42:54;;;;;;;7.45;4.03;;;24.30;95.30;;;;;;5107154;28;20194;-65
2023/10/03 12:45:22;;;;;;;7.18;3.70;;;24.50;95.00;;;;;;5110470;28;20305;-64
2023/10/03 12:47:53;;;;;;;8.68;3.85;;;24.70;94.80;;;;;;5107542;28;20227;-65
2023/10/03 12:50:23;;;;;;;6.78;4.30;;;24.70;94.30;;;;;;5107612;28;20181;-65
2023/10/03 12:52:50;;;;;;;8.77;4.32;;;24.90;93.90;;;;;;5108398;28;20188;-65
2023/10/03 12:55:18;;;;;;;6.18;3.67;;;25.10;93.60;;;;;;5110181;28;20222;-65
2023/10/03 12:57:50;;;;;;;8.63;4.20;;;25.30;93.50;;;;;;5104807;28;20285;-65
2023/10/03 13:00:20;;;;;;;8.05;3.83;;;25.40;93.10;;;;;;5111107;28;20602;-65
2023/10/03 13:02:48;;;;;;;6.03;3.85;;;25.30;92.90;;;;;;5105411;28;20201;-64
2023/10/03 13:05:15;;;;;;;15.73;5.50;;;25.30;93.00;;;;;;5108473;28;20207;-65